sensor_id;sensor_type;location;lat;lon;timestamp;pressure;altitude;pressure_sealevel;temperature;humidity
47761;BME280;33524;55.434;38.520;2022-12-29T00:01:43;100040.69;;;-2.22;100.00
47761;BME280;33524;55.434;38.520;2022-12-29T00:04:13;100043.31;;;-1.93;100.00
47761;BME280;33524;55.434;38.520;2022-12-29T00:06:42;100053.78;;;-1.99;100.00
47761;BME280;33524;55.434;38.520;2022-12-29T00:09:11;100053.87;;;-2.02;100.00
47761;BME280;33524;55.434;38.520;2022-12-29T00:11:43;100036.87;;;-2.09;100.00
47761;BME280;33524;55.434;38.520;2022-12-29T00:14:12;100052.84;;;-1.96;100.00
47761;BME280;33524;55.434;38.520;2022-12-29T00:16:58;100048.59;;;-1.97;100.00
47761;BME280;33524;55.434;38.520;2022-12-29T00:19:30;100052.81;;;-1.95;100.00
47761;BME280;33524;55.434;38.520;2022-12-29T00:22:16;100063.87;;;-1.90;100.00
47761;BME280;33524;55.434;38.520;2022-12-29T00:25:05;100070.47;;;-1.79;100.00
47761;BME280;33524;55.434;38.520;2022-12-29T00:27:51;100067.97;;;-1.83;100.00
47761;BME280;33524;55.434;38.520;2022-12-29T00:30:42;100056.16;;;-1.90;100.00
47761;BME280;33524;55.434;38.520;2022-12-29T00:33:31;100065.66;;;-1.92;100.00
47761;BME280;33524;55.434;38.520;2022-12-29T00:36:39;100064.88;;;-1.95;100.00
47761;BME280;33524;55.434;38.520;2022-12-29T00:39:14;100059.75;;;-1.97;100.00
47761;BME280;33524;55.434;38.520;2022-12-29T00:42:07;100063.34;;;-2.03;100.00
47761;BME280;33524;55.434;38.520;2022-12-29T00:44:54;100072.97;;;-1.76;100.00
47761;BME280;33524;55.434;38.520;2022-12-29T00:47:25;100071.44;;;-1.84;100.00
47761;BME280;33524;55.434;38.520;2022-12-29T00:49:53;100065.88;;;-2.01;100.00
47761;BME280;33524;55.434;38.520;2022-12-29T00:52:21;100077.56;;;-1.88;100.00
47761;BME280;33524;55.434;38.520;2022-12-29T00:54:50;100081.69;;;-1.82;100.00
47761;BME280;33524;55.434;38.520;2022-12-29T00:57:18;100077.47;;;-1.85;100.00
47761;BME280;33524;55.434;38.520;2022-12-29T00:59:46;100072.25;;;-1.81;100.00
47761;BME280;33524;55.434;38.520;2022-12-29T01:02:15;100081.75;;;-1.84;100.00
47761;BME280;33524;55.434;38.520;2022-12-29T01:04:46;100076.16;;;-1.67;100.00
47761;BME280;33524;55.434;38.520;2022-12-29T01:07:15;100083.38;;;-1.79;100.00
47761;BME280;33524;55.434;38.520;2022-12-29T01:09:44;100085.84;;;-1.76;100.00
47761;BME280;33524;55.434;38.520;2022-12-29T01:12:33;100089.66;;;-1.58;100.00
47761;BME280;33524;55.434;38.520;2022-12-29T01:15:14;100088.78;;;-1.57;99.93
47761;BME280;33524;55.434;38.520;2022-12-29T01:17:42;100087.13;;;-1.60;99.97
47761;BME280;33524;55.434;38.520;2022-12-29T01:20:13;100093.09;;;-1.58;100.00
47761;BME280;33524;55.434;38.520;2022-12-29T01:22:41;100092.63;;;-1.41;99.74
47761;BME280;33524;55.434;38.520;2022-12-29T01:25:12;100098.13;;;-1.53;99.69
47761;BME280;33524;55.434;38.520;2022-12-29T01:27:40;100083.50;;;-1.53;99.47
47761;BME280;33524;55.434;38.520;2022-12-29T01:30:08;100099.81;;;-1.52;98.90
47761;BME280;33524;55.434;38.520;2022-12-29T01:32:36;100098.28;;;-1.59;99.20
47761;BME280;33524;55.434;38.520;2022-12-29T01:35:05;100090.81;;;-1.69;98.62
47761;BME280;33524;55.434;38.520;2022-12-29T01:37:34;100101.56;;;-1.86;98.55
47761;BME280;33524;55.434;38.520;2022-12-29T01:40:05;100096.56;;;-1.92;98.65
47761;BME280;33524;55.434;38.520;2022-12-29T01:42:33;100094.50;;;-1.77;97.66
47761;BME280;33524;55.434;38.520;2022-12-29T01:45:22;100093.50;;;-2.06;98.19
47761;BME280;33524;55.434;38.520;2022-12-29T01:47:54;100099.19;;;-2.28;98.61
47761;BME280;33524;55.434;38.520;2022-12-29T01:50:38;100101.97;;;-2.35;98.61
47761;BME280;33524;55.434;38.520;2022-12-29T01:53:15;100100.34;;;-2.39;99.08
47761;BME280;33524;55.434;38.520;2022-12-29T01:55:51;100105.00;;;-2.55;99.08
47761;BME280;33524;55.434;38.520;2022-12-29T01:58:22;100099.62;;;-2.46;99.11
47761;BME280;33524;55.434;38.520;2022-12-29T02:00:51;100108.44;;;-2.56;98.91
47761;BME280;33524;55.434;38.520;2022-12-29T02:03:21;100102.00;;;-2.74;98.88
47761;BME280;33524;55.434;38.520;2022-12-29T02:06:00;100115.16;;;-2.49;99.22
47761;BME280;33524;55.434;38.520;2022-12-29T02:08:30;100095.53;;;-2.55;98.50
47761;BME280;33524;55.434;38.520;2022-12-29T02:11:02;100108.34;;;-2.52;98.38
47761;BME280;33524;55.434;38.520;2022-12-29T02:13:33;100117.66;;;-2.46;97.78
47761;BME280;33524;55.434;38.520;2022-12-29T02:21:41;100132.72;;;-2.67;96.79
47761;BME280;33524;55.434;38.520;2022-12-29T02:24:37;100120.28;;;-2.85;96.97
47761;BME280;33524;55.434;38.520;2022-12-29T02:30:30;100142.91;;;-3.01;97.14
47761;BME280;33524;55.434;38.520;2022-12-29T02:35:44;100143.88;;;-3.07;97.54
47761;BME280;33524;55.434;38.520;2022-12-29T02:43:39;100148.91;;;-2.61;97.44
47761;BME280;33524;55.434;38.520;2022-12-29T02:46:28;100157.78;;;-2.75;96.28
47761;BME280;33524;55.434;38.520;2022-12-29T02:52:02;100140.12;;;-2.53;95.67
47761;BME280;33524;55.434;38.520;2022-12-29T02:54:31;100146.25;;;-2.58;95.08
47761;BME280;33524;55.434;38.520;2022-12-29T03:00:09;100148.19;;;-2.67;95.50
47761;BME280;33524;55.434;38.520;2022-12-29T03:03:01;100144.16;;;-2.80;94.59
47761;BME280;33524;55.434;38.520;2022-12-29T03:08:50;100152.13;;;-2.92;94.65
47761;BME280;33524;55.434;38.520;2022-12-29T03:11:27;100150.59;;;-2.99;94.53
47761;BME280;33524;55.434;38.520;2022-12-29T03:15:05;100152.97;;;-2.92;94.55
47761;BME280;33524;55.434;38.520;2022-12-29T03:18:04;100164.31;;;-2.60;95.14
47761;BME280;33524;55.434;38.520;2022-12-29T03:20:44;100157.88;;;-2.79;94.34
47761;BME280;33524;55.434;38.520;2022-12-29T03:23:15;100158.75;;;-2.79;94.51
47761;BME280;33524;55.434;38.520;2022-12-29T03:25:48;100168.28;;;-2.84;94.81
47761;BME280;33524;55.434;38.520;2022-12-29T03:28:25;100169.16;;;-2.85;94.15
47761;BME280;33524;55.434;38.520;2022-12-29T03:30:59;100164.56;;;-2.71;93.66
47761;BME280;33524;55.434;38.520;2022-12-29T03:33:31;100169.03;;;-2.79;94.37
47761;BME280;33524;55.434;38.520;2022-12-29T03:36:03;100177.78;;;-2.88;94.03
47761;BME280;33524;55.434;38.520;2022-12-29T03:38:59;100181.38;;;-2.96;94.27
47761;BME280;33524;55.434;38.520;2022-12-29T03:41:33;100183.91;;;-2.93;94.62
47761;BME280;33524;55.434;38.520;2022-12-29T03:44:02;100177.06;;;-2.94;94.22
47761;BME280;33524;55.434;38.520;2022-12-29T03:46:33;100182.16;;;-2.91;94.97
47761;BME280;33524;55.434;38.520;2022-12-29T03:49:02;100183.37;;;-3.11;95.16
47761;BME280;33524;55.434;38.520;2022-12-29T03:51:30;100190.53;;;-3.25;95.11
47761;BME280;33524;55.434;38.520;2022-12-29T03:53:58;100190.44;;;-3.20;95.83
47761;BME280;33524;55.434;38.520;2022-12-29T03:56:26;100180.69;;;-3.50;96.46
47761;BME280;33524;55.434;38.520;2022-12-29T03:58:54;100182.34;;;-3.46;97.06
47761;BME280;33524;55.434;38.520;2022-12-29T04:01:23;100177.84;;;-3.34;97.13
47761;BME280;33524;55.434;38.520;2022-12-29T04:03:55;100191.56;;;-3.83;96.88
47761;BME280;33524;55.434;38.520;2022-12-29T04:06:23;100198.56;;;-3.92;97.52
47761;BME280;33524;55.434;38.520;2022-12-29T04:08:52;100183.88;;;-3.85;98.64
47761;BME280;33524;55.434;38.520;2022-12-29T04:11:21;100190.31;;;-3.59;99.32
47761;BME280;33524;55.434;38.520;2022-12-29T04:13:56;100202.63;;;-3.78;98.40
47761;BME280;33524;55.434;38.520;2022-12-29T04:16:24;100198.84;;;-4.09;98.76
47761;BME280;33524;55.434;38.520;2022-12-29T04:18:52;100209.91;;;-4.05;98.99
47761;BME280;33524;55.434;38.520;2022-12-29T04:21:22;100211.59;;;-4.02;99.27
47761;BME280;33524;55.434;38.520;2022-12-29T04:23:50;100206.66;;;-4.16;99.18
47761;BME280;33524;55.434;38.520;2022-12-29T04:26:18;100211.59;;;-4.02;99.29
47761;BME280;33524;55.434;38.520;2022-12-29T04:28:50;100212.25;;;-3.93;98.65
47761;BME280;33524;55.434;38.520;2022-12-29T04:31:21;100202.34;;;-3.61;98.21
47761;BME280;33524;55.434;38.520;2022-12-29T04:33:49;100206.87;;;-3.29;97.64
47761;BME280;33524;55.434;38.520;2022-12-29T04:36:17;100201.38;;;-3.56;96.77
47761;BME280;33524;55.434;38.520;2022-12-29T04:38:48;100213.25;;;-3.49;96.57
47761;BME280;33524;55.434;38.520;2022-12-29T04:41:16;100210.66;;;-3.47;96.82
47761;BME280;33524;55.434;38.520;2022-12-29T04:43:44;100208.88;;;-3.43;95.58
47761;BME280;33524;55.434;38.520;2022-12-29T04:46:13;100215.25;;;-3.66;96.38
47761;BME280;33524;55.434;38.520;2022-12-29T04:48:41;100206.37;;;-3.48;96.47
47761;BME280;33524;55.434;38.520;2022-12-29T04:51:10;100216.25;;;-3.27;96.46
47761;BME280;33524;55.434;38.520;2022-12-29T04:53:38;100211.41;;;-3.40;96.55
47761;BME280;33524;55.434;38.520;2022-12-29T04:56:07;100208.03;;;-3.46;96.20
47761;BME280;33524;55.434;38.520;2022-12-29T04:58:39;100210.75;;;-3.07;98.43
47761;BME280;33524;55.434;38.520;2022-12-29T05:01:07;100211.03;;;-3.70;95.97
47761;BME280;33524;55.434;38.520;2022-12-29T05:03:35;100219.00;;;-3.34;97.13
47761;BME280;33524;55.434;38.520;2022-12-29T05:06:04;100217.69;;;-3.57;96.54
47761;BME280;33524;55.434;38.520;2022-12-29T05:08:32;100218.69;;;-3.66;96.22
47761;BME280;33524;55.434;38.520;2022-12-29T05:11:00;100215.00;;;-3.51;98.15
47761;BME280;33524;55.434;38.520;2022-12-29T05:13:28;100226.66;;;-3.31;98.15
47761;BME280;33524;55.434;38.520;2022-12-29T05:15:56;100226.81;;;-3.90;96.27
47761;BME280;33524;55.434;38.520;2022-12-29T05:18:24;100227.28;;;-3.68;97.75
47761;BME280;33524;55.434;38.520;2022-12-29T05:20:53;100230.28;;;-3.94;97.19
47761;BME280;33524;55.434;38.520;2022-12-29T05:23:22;100235.16;;;-3.76;98.17
47761;BME280;33524;55.434;38.520;2022-12-29T05:25:51;100246.63;;;-3.46;97.54
47761;BME280;33524;55.434;38.520;2022-12-29T05:28:19;100248.72;;;-3.68;96.87
47761;BME280;33524;55.434;38.520;2022-12-29T05:30:49;100241.81;;;-3.16;98.63
47761;BME280;33524;55.434;38.520;2022-12-29T05:33:18;100244.44;;;-3.70;96.25
47761;BME280;33524;55.434;38.520;2022-12-29T05:35:49;100246.25;;;-3.75;96.72
47761;BME280;33524;55.434;38.520;2022-12-29T05:38:18;100253.69;;;-3.58;97.86
47761;BME280;33524;55.434;38.520;2022-12-29T05:40:46;100257.28;;;-3.69;96.74
47761;BME280;33524;55.434;38.520;2022-12-29T05:43:14;100257.28;;;-3.67;96.84
47761;BME280;33524;55.434;38.520;2022-12-29T05:45:43;100251.50;;;-3.30;96.97
47761;BME280;33524;55.434;38.520;2022-12-29T05:48:11;100268.09;;;-3.50;95.61
47761;BME280;33524;55.434;38.520;2022-12-29T05:50:39;100267.25;;;-3.49;95.27
47761;BME280;33524;55.434;38.520;2022-12-29T05:53:11;100271.81;;;-3.16;95.75
47761;BME280;33524;55.434;38.520;2022-12-29T05:55:39;100279.69;;;-3.24;94.56
47761;BME280;33524;55.434;38.520;2022-12-29T05:58:16;100265.53;;;-3.48;94.52
47761;BME280;33524;55.434;38.520;2022-12-29T06:00:45;100284.16;;;-3.35;94.30
47761;BME280;33524;55.434;38.520;2022-12-29T06:03:13;100291.50;;;-3.14;94.42
47761;BME280;33524;55.434;38.520;2022-12-29T06:05:45;100298.34;;;-3.13;94.29
47761;BME280;33524;55.434;38.520;2022-12-29T06:08:14;100294.28;;;-3.26;94.43
47761;BME280;33524;55.434;38.520;2022-12-29T06:10:45;100294.00;;;-3.11;94.67
47761;BME280;33524;55.434;38.520;2022-12-29T06:13:13;100295.34;;;-2.90;94.39
47761;BME280;33524;55.434;38.520;2022-12-29T06:15:42;100296.50;;;-3.06;94.29
47761;BME280;33524;55.434;38.520;2022-12-29T06:18:11;100293.69;;;-2.92;94.42
47761;BME280;33524;55.434;38.520;2022-12-29T06:20:47;100297.72;;;-2.79;93.44
47761;BME280;33524;55.434;38.520;2022-12-29T06:23:15;100299.75;;;-2.95;93.50
47761;BME280;33524;55.434;38.520;2022-12-29T06:25:48;100296.00;;;-2.78;93.50
47761;BME280;33524;55.434;38.520;2022-12-29T06:28:17;100303.12;;;-2.91;93.09
47761;BME280;33524;55.434;38.520;2022-12-29T06:30:45;100301.59;;;-3.01;93.00
47761;BME280;33524;55.434;38.520;2022-12-29T06:33:13;100305.09;;;-3.06;92.70
47761;BME280;33524;55.434;38.520;2022-12-29T06:35:44;100310.53;;;-2.76;93.31
47761;BME280;33524;55.434;38.520;2022-12-29T06:38:14;100306.19;;;-2.72;92.67
47761;BME280;33524;55.434;38.520;2022-12-29T06:40:42;100295.19;;;-2.80;92.12
47761;BME280;33524;55.434;38.520;2022-12-29T06:43:15;100298.81;;;-2.92;92.00
47761;BME280;33524;55.434;38.520;2022-12-29T06:45:44;100293.78;;;-2.97;92.18
47761;BME280;33524;55.434;38.520;2022-12-29T06:48:12;100293.47;;;-2.81;91.78
47761;BME280;33524;55.434;38.520;2022-12-29T06:50:40;100296.12;;;-2.85;91.90
47761;BME280;33524;55.434;38.520;2022-12-29T06:53:08;100298.34;;;-2.68;91.90
47761;BME280;33524;55.434;38.520;2022-12-29T06:55:36;100298.56;;;-2.78;92.02
47761;BME280;33524;55.434;38.520;2022-12-29T06:58:05;100301.13;;;-2.77;91.11
47761;BME280;33524;55.434;38.520;2022-12-29T07:00:33;100293.53;;;-2.85;91.58
47761;BME280;33524;55.434;38.520;2022-12-29T07:03:01;100303.00;;;-2.85;91.06
47761;BME280;33524;55.434;38.520;2022-12-29T07:05:29;100290.31;;;-2.96;90.73
47761;BME280;33524;55.434;38.520;2022-12-29T07:08:00;100300.22;;;-2.76;91.13
47761;BME280;33524;55.434;38.520;2022-12-29T07:10:28;100307.25;;;-2.84;90.81
47761;BME280;33524;55.434;38.520;2022-12-29T07:12:56;100307.66;;;-3.06;90.78
47761;BME280;33524;55.434;38.520;2022-12-29T07:15:24;100312.53;;;-2.92;91.28
47761;BME280;33524;55.434;38.520;2022-12-29T07:17:52;100305.22;;;-3.15;90.34
47761;BME280;33524;55.434;38.520;2022-12-29T07:20:20;100310.22;;;-3.06;90.48
47761;BME280;33524;55.434;38.520;2022-12-29T07:22:53;100310.00;;;-2.93;90.74
47761;BME280;33524;55.434;38.520;2022-12-29T07:25:25;100307.38;;;-2.92;90.48
47761;BME280;33524;55.434;38.520;2022-12-29T07:27:53;100310.56;;;-2.77;90.27
47761;BME280;33524;55.434;38.520;2022-12-29T07:30:21;100313.59;;;-2.58;90.12
47761;BME280;33524;55.434;38.520;2022-12-29T07:32:49;100312.88;;;-2.64;89.77
47761;BME280;33524;55.434;38.520;2022-12-29T07:35:17;100316.13;;;-2.55;89.46
47761;BME280;33524;55.434;38.520;2022-12-29T07:37:45;100323.66;;;-2.46;89.19
47761;BME280;33524;55.434;38.520;2022-12-29T07:40:14;100312.19;;;-2.30;89.80
47761;BME280;33524;55.434;38.520;2022-12-29T07:42:42;100325.28;;;-2.40;88.55
47761;BME280;33524;55.434;38.520;2022-12-29T07:45:14;100327.88;;;-2.42;88.87
47761;BME280;33524;55.434;38.520;2022-12-29T07:47:48;100321.78;;;-2.38;88.75
47761;BME280;33524;55.434;38.520;2022-12-29T07:50:17;100325.16;;;-2.34;88.35
47761;BME280;33524;55.434;38.520;2022-12-29T07:52:45;100330.91;;;-2.21;89.49
47761;BME280;33524;55.434;38.520;2022-12-29T07:55:16;100327.88;;;-2.42;88.09
47761;BME280;33524;55.434;38.520;2022-12-29T07:57:44;100332.91;;;-2.36;88.89
47761;BME280;33524;55.434;38.520;2022-12-29T08:00:13;100335.78;;;-2.09;88.69
47761;BME280;33524;55.434;38.520;2022-12-29T08:02:41;100333.75;;;-1.95;89.86
47761;BME280;33524;55.434;38.520;2022-12-29T08:05:09;100334.38;;;-2.22;87.46
47761;BME280;33524;55.434;38.520;2022-12-29T08:07:37;100332.34;;;-2.08;87.79
47761;BME280;33524;55.434;38.520;2022-12-29T08:10:06;100339.56;;;-1.85;87.65
47761;BME280;33524;55.434;38.520;2022-12-29T08:12:34;100334.78;;;-2.02;87.13
47761;BME280;33524;55.434;38.520;2022-12-29T08:15:02;100331.28;;;-1.99;86.66
47761;BME280;33524;55.434;38.520;2022-12-29T08:17:31;100332.34;;;-2.08;86.82
47761;BME280;33524;55.434;38.520;2022-12-29T08:19:58;100338.91;;;-1.95;85.60
47761;BME280;33524;55.434;38.520;2022-12-29T08:22:29;100339.44;;;-2.19;86.14
47761;BME280;33524;55.434;38.520;2022-12-29T08:24:57;100336.88;;;-2.19;86.76
47761;BME280;33524;55.434;38.520;2022-12-29T08:27:25;100340.00;;;-2.05;86.08
47761;BME280;33524;55.434;38.520;2022-12-29T08:29:53;100339.66;;;-2.30;85.94
47761;BME280;33524;55.434;38.520;2022-12-29T08:32:22;100343.66;;;-1.76;86.09
47761;BME280;33524;55.434;38.520;2022-12-29T08:34:50;100333.16;;;-1.67;85.53
47761;BME280;33524;55.434;38.520;2022-12-29T08:37:18;100337.09;;;-1.90;85.56
47761;BME280;33524;55.434;38.520;2022-12-29T08:39:46;100332.16;;;-1.62;86.20
47761;BME280;33524;55.434;38.520;2022-12-29T08:42:14;100337.59;;;-1.74;85.53
47761;BME280;33524;55.434;38.520;2022-12-29T08:44:42;100334.78;;;-1.63;85.13
47761;BME280;33524;55.434;38.520;2022-12-29T08:47:11;100326.28;;;-1.68;85.11
47761;BME280;33524;55.434;38.520;2022-12-29T08:49:42;100341.13;;;-1.40;84.34
47761;BME280;33524;55.434;38.520;2022-12-29T08:52:10;100336.19;;;-1.50;84.24
47761;BME280;33524;55.434;38.520;2022-12-29T08:54:38;100338.56;;;-1.40;84.64
47761;BME280;33524;55.434;38.520;2022-12-29T08:57:06;100330.47;;;-1.28;84.09
47761;BME280;33524;55.434;38.520;2022-12-29T08:59:35;100333.84;;;-1.59;83.94
47761;BME280;33524;55.434;38.520;2022-12-29T09:02:03;100338.84;;;-1.53;84.05
47761;BME280;33524;55.434;38.520;2022-12-29T09:04:31;100348.00;;;-1.41;84.57
47761;BME280;33524;55.434;38.520;2022-12-29T09:06:59;100335.50;;;-1.22;84.81
47761;BME280;33524;55.434;38.520;2022-12-29T09:09:27;100338.37;;;-1.00;84.57
47761;BME280;33524;55.434;38.520;2022-12-29T09:11:55;100342.28;;;-1.18;83.69
47761;BME280;33524;55.434;38.520;2022-12-29T09:14:23;100342.09;;;-1.10;83.69
47761;BME280;33524;55.434;38.520;2022-12-29T09:16:51;100339.19;;;-0.98;83.49
47761;BME280;33524;55.434;38.520;2022-12-29T09:19:38;100342.28;;;-1.18;82.68
47761;BME280;33524;55.434;38.520;2022-12-29T09:22:06;100349.81;;;-1.09;82.55
47761;BME280;33524;55.434;38.520;2022-12-29T09:24:33;100341.50;;;-0.87;83.24
47761;BME280;33524;55.434;38.520;2022-12-29T09:27:02;100328.06;;;-1.00;82.69
47761;BME280;33524;55.434;38.520;2022-12-29T09:29:29;100339.22;;;-1.32;83.28
47761;BME280;33524;55.434;38.520;2022-12-29T09:31:57;100341.59;;;-1.25;83.38
47761;BME280;33524;55.434;38.520;2022-12-29T09:34:25;100333.25;;;-1.02;83.08
47761;BME280;33524;55.434;38.520;2022-12-29T09:36:53;100335.69;;;-0.95;82.77
47761;BME280;33524;55.434;38.520;2022-12-29T09:39:23;100341.75;;;-0.96;82.78
47761;BME280;33524;55.434;38.520;2022-12-29T09:45:24;100337.62;;;-0.71;83.00
47761;BME280;33524;55.434;38.520;2022-12-29T09:47:56;100328.66;;;-0.57;82.21
47761;BME280;33524;55.434;38.520;2022-12-29T09:53:05;100333.16;;;-0.33;80.22
47761;BME280;33524;55.434;38.520;2022-12-29T09:55:57;100327.91;;;-0.31;79.82
47761;BME280;33524;55.434;38.520;2022-12-29T09:58:39;100326.56;;;-0.15;78.52
47761;BME280;33524;55.434;38.520;2022-12-29T10:04:00;100326.38;;;-0.37;77.99
47761;BME280;33524;55.434;38.520;2022-12-29T10:06:53;100317.34;;;-0.24;79.83
47761;BME280;33524;55.434;38.520;2022-12-29T10:09:48;100332.50;;;-0.11;79.56
47761;BME280;33524;55.434;38.520;2022-12-29T10:12:36;100332.47;;;-0.10;79.11
47761;BME280;33524;55.434;38.520;2022-12-29T10:15:31;100331.72;;;-0.13;78.91
47761;BME280;33524;55.434;38.520;2022-12-29T10:18:15;100339.06;;;0.01;80.67
47761;BME280;33524;55.434;38.520;2022-12-29T10:20:58;100318.41;;;-0.01;79.45
47761;BME280;33524;55.434;38.520;2022-12-29T10:23:36;100334.03;;;-0.04;78.64
47761;BME280;33524;55.434;38.520;2022-12-29T10:26:16;100342.34;;;0.06;79.95
47761;BME280;33524;55.434;38.520;2022-12-29T10:28:52;100328.41;;;0.11;79.50
47761;BME280;33524;55.434;38.520;2022-12-29T10:31:31;100334.06;;;0.23;77.43
47761;BME280;33524;55.434;38.520;2022-12-29T10:34:12;100340.75;;;0.30;78.95
47761;BME280;33524;55.434;38.520;2022-12-29T10:36:46;100339.16;;;0.26;78.43
47761;BME280;33524;55.434;38.520;2022-12-29T10:39:46;100348.53;;;0.30;78.20
47761;BME280;33524;55.434;38.520;2022-12-29T10:42:36;100345.69;;;0.09;76.37
47761;BME280;33524;55.434;38.520;2022-12-29T10:45:13;100342.81;;;-0.10;77.63
47761;BME280;33524;55.434;38.520;2022-12-29T10:48:09;100333.47;;;-0.14;76.77
47761;BME280;33524;55.434;38.520;2022-12-29T10:50:39;100343.97;;;-0.20;78.60
47761;BME280;33524;55.434;38.520;2022-12-29T10:53:18;100340.56;;;-0.21;77.92
47761;BME280;33524;55.434;38.520;2022-12-29T10:55:49;100344.12;;;-0.25;79.80
47761;BME280;33524;55.434;38.520;2022-12-29T10:58:18;100350.50;;;-0.38;78.76
47761;BME280;33524;55.434;38.520;2022-12-29T11:00:52;100355.25;;;-0.54;79.71
47761;BME280;33524;55.434;38.520;2022-12-29T11:06:09;100348.75;;;-1.02;78.01
47761;BME280;33524;55.434;38.520;2022-12-29T11:08:45;100367.62;;;-1.34;79.08
47761;BME280;33524;55.434;38.520;2022-12-29T11:11:25;100359.75;;;-1.65;80.55
47761;BME280;33524;55.434;38.520;2022-12-29T11:16:39;100364.09;;;-1.67;82.54
47761;BME280;33524;55.434;38.520;2022-12-29T11:19:20;100364.31;;;-1.78;83.65
47761;BME280;33524;55.434;38.520;2022-12-29T11:21:50;100360.97;;;-1.81;85.46
47761;BME280;33524;55.434;38.520;2022-12-29T11:24:22;100356.66;;;-1.81;84.63
47761;BME280;33524;55.434;38.520;2022-12-29T11:26:53;100369.41;;;-1.73;85.52
47761;BME280;33524;55.434;38.520;2022-12-29T11:29:37;100360.72;;;-1.69;86.42
47761;BME280;33524;55.434;38.520;2022-12-29T11:32:26;100358.06;;;-1.68;86.58
47761;BME280;33524;55.434;38.520;2022-12-29T11:34:57;100353.81;;;-1.69;87.87
47761;BME280;33524;55.434;38.520;2022-12-29T11:37:38;100352.19;;;-1.73;88.76
47761;BME280;33524;55.434;38.520;2022-12-29T11:40:18;100356.31;;;-1.66;88.93
47761;BME280;33524;55.434;38.520;2022-12-29T11:42:54;100350.31;;;-1.66;88.96
47761;BME280;33524;55.434;38.520;2022-12-29T11:45:33;100352.84;;;-1.63;86.63
47761;BME280;33524;55.434;38.520;2022-12-29T11:48:08;100356.22;;;-1.61;86.00
47761;BME280;33524;55.434;38.520;2022-12-29T11:50:39;100352.87;;;-1.65;84.38
47761;BME280;33524;55.434;38.520;2022-12-29T11:53:32;100358.16;;;-1.71;85.42
47761;BME280;33524;55.434;38.520;2022-12-29T11:56:16;100367.78;;;-1.77;86.17
47761;BME280;33524;55.434;38.520;2022-12-29T11:58:45;100354.16;;;-1.84;87.76
47761;BME280;33524;55.434;38.520;2022-12-29T12:01:34;100373.69;;;-1.74;87.59
47761;BME280;33524;55.434;38.520;2022-12-29T12:04:17;100363.63;;;-1.86;87.48
47761;BME280;33524;55.434;38.520;2022-12-29T12:10:04;100370.50;;;-1.85;88.98
47761;BME280;33524;55.434;38.520;2022-12-29T12:12:39;100362.78;;;-1.87;89.21
47761;BME280;33524;55.434;38.520;2022-12-29T12:15:20;100368.87;;;-1.89;89.95
47761;BME280;33524;55.434;38.520;2022-12-29T12:20:42;100373.50;;;-2.05;90.93
47761;BME280;33524;55.434;38.520;2022-12-29T12:23:38;100370.19;;;-2.10;90.92
47761;BME280;33524;55.434;38.520;2022-12-29T12:26:16;100368.81;;;-2.27;90.59
47761;BME280;33524;55.434;38.520;2022-12-29T12:28:54;100365.56;;;-2.38;90.49
47761;BME280;33524;55.434;38.520;2022-12-29T12:34:38;100384.12;;;-2.66;90.68
47761;BME280;33524;55.434;38.520;2022-12-29T12:40:23;100385.91;;;-2.69;90.01
47761;BME280;33524;55.434;38.520;2022-12-29T12:43:06;100381.62;;;-2.69;90.04
47761;BME280;33524;55.434;38.520;2022-12-29T12:54:06;100386.50;;;-2.55;90.20
47761;BME280;33524;55.434;38.520;2022-12-29T12:59:56;100382.09;;;-2.48;90.14
47761;BME280;33524;55.434;38.520;2022-12-29T13:11:28;100365.91;;;-0.99;87.52
47761;BME280;33524;55.434;38.520;2022-12-29T13:16:29;100382.75;;;-1.96;88.23
47761;BME280;33524;55.434;38.520;2022-12-29T13:27:10;100373.06;;;-0.43;88.20
47761;BME280;33524;55.434;38.520;2022-12-29T13:32:39;100381.56;;;-1.80;89.74
47761;BME280;33524;55.434;38.520;2022-12-29T13:38:00;100388.94;;;-1.63;87.69
47761;BME280;33524;55.434;38.520;2022-12-29T13:40:36;100381.41;;;-1.72;88.98
47761;BME280;33524;55.434;38.520;2022-12-29T13:43:07;100381.91;;;-1.97;89.45
47761;BME280;33524;55.434;38.520;2022-12-29T13:45:36;100379.81;;;-2.18;90.57
47761;BME280;33524;55.434;38.520;2022-12-29T13:48:16;100379.09;;;-2.27;91.18
47761;BME280;33524;55.434;38.520;2022-12-29T13:50:48;100384.84;;;-2.12;91.90
47761;BME280;33524;55.434;38.520;2022-12-29T13:53:29;100381.38;;;-1.71;92.42
47761;BME280;33524;55.434;38.520;2022-12-29T13:56:18;100390.06;;;-1.76;89.89
47761;BME280;33524;55.434;38.520;2022-12-29T13:58:54;100385.44;;;-2.01;91.55
47761;BME280;33524;55.434;38.520;2022-12-29T14:04:02;100385.66;;;-2.10;90.79
47761;BME280;33524;55.434;38.520;2022-12-29T14:06:36;100375.38;;;-2.13;91.00
47761;BME280;33524;55.434;38.520;2022-12-29T14:12:28;100381.88;;;-1.19;91.96
47761;BME280;33524;55.434;38.520;2022-12-29T14:17:43;100386.91;;;-1.89;91.25
47761;BME280;33524;55.434;38.520;2022-12-29T14:20:22;100383.00;;;-2.07;90.78
47761;BME280;33524;55.434;38.520;2022-12-29T14:22:59;100380.38;;;-2.06;91.62
47761;BME280;33524;55.434;38.520;2022-12-29T14:25:59;100383.13;;;-2.13;91.77
47761;BME280;33524;55.434;38.520;2022-12-29T14:28:29;100383.28;;;-2.21;92.23
47761;BME280;33524;55.434;38.520;2022-12-29T14:31:00;100374.28;;;-2.01;92.57
47761;BME280;33524;55.434;38.520;2022-12-29T14:33:33;100364.78;;;-1.98;92.03
47761;BME280;33524;55.434;38.520;2022-12-29T14:36:21;100373.38;;;-1.99;91.25
47761;BME280;33524;55.434;38.520;2022-12-29T14:38:52;100365.91;;;-1.72;91.38
47761;BME280;33524;55.434;38.520;2022-12-29T14:41:29;100371.88;;;-1.69;90.94
47761;BME280;33524;55.434;38.520;2022-12-29T14:44:09;100375.78;;;-1.91;91.39
47761;BME280;33524;55.434;38.520;2022-12-29T14:46:44;100358.94;;;-1.67;92.13
47761;BME280;33524;55.434;38.520;2022-12-29T14:49:21;100374.56;;;-1.73;91.68
47761;BME280;33524;55.434;38.520;2022-12-29T14:51:52;100370.38;;;-1.79;91.12